Terminal Aerodrome Forecast
Issued by NWS

Home | Current Version | Previous Version | Text Only | Print | Product List | Glossary On
Versions: 1 2 3 4 5 6 7 8 9 10 11 12 13 14 15 16 17 18 19
000
FTUS45 KCYS 271137
TAFAIA
TAF
KAIA 271137Z 2712/2812 13007KT P6SM BKN010 BKN035
     FM271500 14010G20KT P6SM VCSH SCT012 BKN070
     FM272200 13011KT P6SM OVC100=

USA.gov is the U.S. government's official web portal to all federal, state and local government web resources and services.